sensor_id;sensor_type;location;lat;lon;timestamp;P1;durP1;ratioP1;P2;durP2;ratioP2
15681;SDS011;7941;50.966;6.978;2023-03-04T00:01:40;80.03;;;52.20;;
15681;SDS011;7941;50.966;6.978;2023-03-04T00:04:06;84.53;;;53.23;;
15681;SDS011;7941;50.966;6.978;2023-03-04T00:06:33;80.47;;;51.47;;
15681;SDS011;7941;50.966;6.978;2023-03-04T00:08:59;77.10;;;52.57;;
15681;SDS011;7941;50.966;6.978;2023-03-04T00:11:27;75.77;;;50.70;;
15681;SDS011;7941;50.966;6.978;2023-03-04T00:13:54;83.03;;;52.87;;
15681;SDS011;7941;50.966;6.978;2023-03-04T00:16:20;74.37;;;50.97;;
15681;SDS011;7941;50.966;6.978;2023-03-04T00:18:46;76.57;;;51.30;;
15681;SDS011;7941;50.966;6.978;2023-03-04T00:21:12;78.90;;;50.17;;
15681;SDS011;7941;50.966;6.978;2023-03-04T00:23:39;73.43;;;48.27;;
15681;SDS011;7941;50.966;6.978;2023-03-04T00:26:06;76.30;;;49.00;;
15681;SDS011;7941;50.966;6.978;2023-03-04T00:28:33;72.27;;;47.60;;
15681;SDS011;7941;50.966;6.978;2023-03-04T00:31:00;67.73;;;45.70;;
15681;SDS011;7941;50.966;6.978;2023-03-04T00:33:26;74.50;;;48.30;;
15681;SDS011;7941;50.966;6.978;2023-03-04T00:35:52;68.93;;;46.87;;
15681;SDS011;7941;50.966;6.978;2023-03-04T00:38:18;68.53;;;45.07;;
15681;SDS011;7941;50.966;6.978;2023-03-04T00:40:44;63.83;;;44.20;;
15681;SDS011;7941;50.966;6.978;2023-03-04T00:43:10;68.27;;;47.00;;
15681;SDS011;7941;50.966;6.978;2023-03-04T00:45:37;64.07;;;43.03;;
15681;SDS011;7941;50.966;6.978;2023-03-04T00:48:03;72.43;;;46.07;;
15681;SDS011;7941;50.966;6.978;2023-03-04T00:50:29;66.57;;;43.67;;
15681;SDS011;7941;50.966;6.978;2023-03-04T00:52:55;65.80;;;42.97;;
15681;SDS011;7941;50.966;6.978;2023-03-04T00:55:21;59.10;;;41.13;;
15681;SDS011;7941;50.966;6.978;2023-03-04T00:57:47;60.40;;;40.77;;
15681;SDS011;7941;50.966;6.978;2023-03-04T01:00:13;57.27;;;39.90;;
15681;SDS011;7941;50.966;6.978;2023-03-04T01:02:39;63.27;;;39.90;;
15681;SDS011;7941;50.966;6.978;2023-03-04T01:05:06;60.60;;;39.10;;
15681;SDS011;7941;50.966;6.978;2023-03-04T01:07:32;55.70;;;38.47;;
15681;SDS011;7941;50.966;6.978;2023-03-04T01:09:58;56.53;;;37.07;;
15681;SDS011;7941;50.966;6.978;2023-03-04T01:12:24;50.73;;;34.10;;
15681;SDS011;7941;50.966;6.978;2023-03-04T01:14:50;52.33;;;34.90;;
15681;SDS011;7941;50.966;6.978;2023-03-04T01:17:17;47.83;;;35.10;;
15681;SDS011;7941;50.966;6.978;2023-03-04T01:19:43;48.23;;;33.43;;
15681;SDS011;7941;50.966;6.978;2023-03-04T01:22:09;46.83;;;32.57;;
15681;SDS011;7941;50.966;6.978;2023-03-04T01:24:37;44.17;;;32.23;;
15681;SDS011;7941;50.966;6.978;2023-03-04T01:27:03;47.83;;;30.90;;
15681;SDS011;7941;50.966;6.978;2023-03-04T01:29:30;45.87;;;31.87;;
15681;SDS011;7941;50.966;6.978;2023-03-04T01:31:56;47.93;;;31.77;;
15681;SDS011;7941;50.966;6.978;2023-03-04T01:34:22;45.87;;;30.03;;
15681;SDS011;7941;50.966;6.978;2023-03-04T01:36:49;42.77;;;30.17;;
15681;SDS011;7941;50.966;6.978;2023-03-04T01:39:15;41.23;;;30.27;;
15681;SDS011;7941;50.966;6.978;2023-03-04T01:41:41;41.27;;;27.50;;
15681;SDS011;7941;50.966;6.978;2023-03-04T01:44:07;38.83;;;27.30;;
15681;SDS011;7941;50.966;6.978;2023-03-04T01:46:34;36.03;;;25.67;;
15681;SDS011;7941;50.966;6.978;2023-03-04T01:49:00;33.77;;;24.83;;
15681;SDS011;7941;50.966;6.978;2023-03-04T01:51:26;36.73;;;24.13;;
15681;SDS011;7941;50.966;6.978;2023-03-04T01:53:53;33.33;;;21.67;;
15681;SDS011;7941;50.966;6.978;2023-03-04T01:56:22;33.53;;;22.70;;
15681;SDS011;7941;50.966;6.978;2023-03-04T02:01:34;25.67;;;19.90;;
15681;SDS011;7941;50.966;6.978;2023-03-04T02:04:01;28.87;;;21.17;;
15681;SDS011;7941;50.966;6.978;2023-03-04T02:06:27;32.77;;;21.87;;
15681;SDS011;7941;50.966;6.978;2023-03-04T02:08:53;28.40;;;19.40;;
15681;SDS011;7941;50.966;6.978;2023-03-04T02:11:19;32.47;;;21.57;;
15681;SDS011;7941;50.966;6.978;2023-03-04T02:13:46;31.27;;;19.83;;
15681;SDS011;7941;50.966;6.978;2023-03-04T02:16:12;30.53;;;19.07;;
15681;SDS011;7941;50.966;6.978;2023-03-04T02:18:38;31.60;;;20.67;;
15681;SDS011;7941;50.966;6.978;2023-03-04T02:21:18;27.90;;;19.23;;
15681;SDS011;7941;50.966;6.978;2023-03-04T02:23:49;29.77;;;19.73;;
15681;SDS011;7941;50.966;6.978;2023-03-04T02:26:22;26.40;;;18.20;;
15681;SDS011;7941;50.966;6.978;2023-03-04T02:28:49;25.57;;;18.47;;
15681;SDS011;7941;50.966;6.978;2023-03-04T02:31:26;27.87;;;17.37;;
15681;SDS011;7941;50.966;6.978;2023-03-04T02:33:54;26.77;;;17.80;;
15681;SDS011;7941;50.966;6.978;2023-03-04T02:36:21;25.03;;;17.60;;
15681;SDS011;7941;50.966;6.978;2023-03-04T02:38:51;27.43;;;16.40;;
15681;SDS011;7941;50.966;6.978;2023-03-04T02:41:18;24.83;;;16.60;;
15681;SDS011;7941;50.966;6.978;2023-03-04T02:43:46;22.40;;;14.50;;
15681;SDS011;7941;50.966;6.978;2023-03-04T02:46:12;27.60;;;15.40;;
15681;SDS011;7941;50.966;6.978;2023-03-04T02:48:38;27.17;;;15.87;;
15681;SDS011;7941;50.966;6.978;2023-03-04T02:51:04;20.47;;;14.13;;
15681;SDS011;7941;50.966;6.978;2023-03-04T02:53:31;23.00;;;14.80;;
15681;SDS011;7941;50.966;6.978;2023-03-04T02:55:57;25.63;;;14.93;;
15681;SDS011;7941;50.966;6.978;2023-03-04T02:58:23;25.00;;;14.90;;
15681;SDS011;7941;50.966;6.978;2023-03-04T03:00:49;23.53;;;14.60;;
15681;SDS011;7941;50.966;6.978;2023-03-04T03:03:15;18.73;;;14.37;;
15681;SDS011;7941;50.966;6.978;2023-03-04T03:05:42;24.80;;;14.47;;
15681;SDS011;7941;50.966;6.978;2023-03-04T03:08:08;24.83;;;13.93;;
15681;SDS011;7941;50.966;6.978;2023-03-04T03:10:34;22.50;;;13.27;;
15681;SDS011;7941;50.966;6.978;2023-03-04T03:13:01;23.63;;;13.90;;
15681;SDS011;7941;50.966;6.978;2023-03-04T03:15:27;22.93;;;11.47;;
15681;SDS011;7941;50.966;6.978;2023-03-04T03:17:53;22.87;;;12.30;;
15681;SDS011;7941;50.966;6.978;2023-03-04T03:20:19;19.47;;;12.80;;
15681;SDS011;7941;50.966;6.978;2023-03-04T03:22:46;25.40;;;14.50;;
15681;SDS011;7941;50.966;6.978;2023-03-04T03:25:12;21.00;;;12.70;;
15681;SDS011;7941;50.966;6.978;2023-03-04T03:27:39;21.60;;;12.63;;
15681;SDS011;7941;50.966;6.978;2023-03-04T03:30:05;20.77;;;12.50;;
15681;SDS011;7941;50.966;6.978;2023-03-04T03:32:32;23.33;;;12.30;;
15681;SDS011;7941;50.966;6.978;2023-03-04T03:34:58;24.40;;;12.77;;
15681;SDS011;7941;50.966;6.978;2023-03-04T03:37:25;20.40;;;10.83;;
15681;SDS011;7941;50.966;6.978;2023-03-04T03:39:51;24.50;;;11.80;;
15681;SDS011;7941;50.966;6.978;2023-03-04T03:42:17;19.20;;;10.63;;
15681;SDS011;7941;50.966;6.978;2023-03-04T03:44:43;22.37;;;11.47;;
15681;SDS011;7941;50.966;6.978;2023-03-04T03:47:10;19.43;;;10.60;;
15681;SDS011;7941;50.966;6.978;2023-03-04T03:49:36;21.60;;;10.80;;
15681;SDS011;7941;50.966;6.978;2023-03-04T03:52:02;20.67;;;10.03;;
15681;SDS011;7941;50.966;6.978;2023-03-04T03:54:28;20.03;;;11.17;;
15681;SDS011;7941;50.966;6.978;2023-03-04T03:56:55;22.97;;;11.27;;
15681;SDS011;7941;50.966;6.978;2023-03-04T03:59:21;19.77;;;10.23;;
15681;SDS011;7941;50.966;6.978;2023-03-04T04:01:48;17.83;;;10.80;;
15681;SDS011;7941;50.966;6.978;2023-03-04T04:04:14;21.63;;;10.00;;
15681;SDS011;7941;50.966;6.978;2023-03-04T04:06:40;22.00;;;10.33;;
15681;SDS011;7941;50.966;6.978;2023-03-04T04:09:06;20.87;;;10.77;;
15681;SDS011;7941;50.966;6.978;2023-03-04T04:11:33;23.83;;;10.80;;
15681;SDS011;7941;50.966;6.978;2023-03-04T04:13:59;24.70;;;10.77;;
15681;SDS011;7941;50.966;6.978;2023-03-04T04:16:25;22.60;;;10.00;;
15681;SDS011;7941;50.966;6.978;2023-03-04T04:18:51;23.33;;;10.23;;
15681;SDS011;7941;50.966;6.978;2023-03-04T04:21:17;27.63;;;13.53;;
15681;SDS011;7941;50.966;6.978;2023-03-04T04:23:44;20.40;;;11.87;;
15681;SDS011;7941;50.966;6.978;2023-03-04T04:26:10;18.37;;;11.57;;
15681;SDS011;7941;50.966;6.978;2023-03-04T04:28:36;25.80;;;12.93;;
15681;SDS011;7941;50.966;6.978;2023-03-04T04:31:05;22.70;;;12.00;;
15681;SDS011;7941;50.966;6.978;2023-03-04T04:33:33;24.33;;;12.37;;
15681;SDS011;7941;50.966;6.978;2023-03-04T04:35:59;21.03;;;11.40;;
15681;SDS011;7941;50.966;6.978;2023-03-04T04:38:26;26.90;;;11.83;;
15681;SDS011;7941;50.966;6.978;2023-03-04T04:40:52;27.30;;;11.73;;
15681;SDS011;7941;50.966;6.978;2023-03-04T04:43:18;26.90;;;11.13;;
15681;SDS011;7941;50.966;6.978;2023-03-04T04:45:44;21.13;;;10.40;;
15681;SDS011;7941;50.966;6.978;2023-03-04T04:48:10;20.77;;;10.40;;
15681;SDS011;7941;50.966;6.978;2023-03-04T04:50:36;25.80;;;12.57;;
15681;SDS011;7941;50.966;6.978;2023-03-04T04:53:03;25.87;;;12.80;;
15681;SDS011;7941;50.966;6.978;2023-03-04T04:55:29;23.43;;;11.27;;
15681;SDS011;7941;50.966;6.978;2023-03-04T04:57:55;23.73;;;11.60;;
15681;SDS011;7941;50.966;6.978;2023-03-04T05:00:21;25.77;;;15.00;;
15681;SDS011;7941;50.966;6.978;2023-03-04T05:02:48;27.97;;;16.03;;
15681;SDS011;7941;50.966;6.978;2023-03-04T05:05:14;29.63;;;16.27;;
15681;SDS011;7941;50.966;6.978;2023-03-04T05:07:40;30.10;;;18.00;;
15681;SDS011;7941;50.966;6.978;2023-03-04T05:10:06;30.97;;;16.33;;
15681;SDS011;7941;50.966;6.978;2023-03-04T05:12:32;30.87;;;17.73;;
15681;SDS011;7941;50.966;6.978;2023-03-04T05:14:58;33.30;;;17.53;;
15681;SDS011;7941;50.966;6.978;2023-03-04T05:17:25;37.77;;;21.13;;
15681;SDS011;7941;50.966;6.978;2023-03-04T05:19:51;32.53;;;17.60;;
15681;SDS011;7941;50.966;6.978;2023-03-04T05:22:17;37.43;;;19.87;;
15681;SDS011;7941;50.966;6.978;2023-03-04T05:24:43;44.67;;;26.73;;
15681;SDS011;7941;50.966;6.978;2023-03-04T05:27:09;39.00;;;22.23;;
15681;SDS011;7941;50.966;6.978;2023-03-04T05:29:36;35.30;;;21.10;;
15681;SDS011;7941;50.966;6.978;2023-03-04T05:32:02;38.53;;;23.00;;
15681;SDS011;7941;50.966;6.978;2023-03-04T05:34:28;40.13;;;23.23;;
15681;SDS011;7941;50.966;6.978;2023-03-04T05:36:54;42.03;;;26.07;;
15681;SDS011;7941;50.966;6.978;2023-03-04T05:39:20;47.27;;;27.03;;
15681;SDS011;7941;50.966;6.978;2023-03-04T05:41:46;45.53;;;29.90;;
15681;SDS011;7941;50.966;6.978;2023-03-04T05:44:12;47.57;;;30.73;;
15681;SDS011;7941;50.966;6.978;2023-03-04T05:46:39;48.97;;;32.17;;
15681;SDS011;7941;50.966;6.978;2023-03-04T05:49:05;53.77;;;32.93;;
15681;SDS011;7941;50.966;6.978;2023-03-04T05:51:31;58.10;;;32.70;;
15681;SDS011;7941;50.966;6.978;2023-03-04T05:53:57;48.13;;;31.73;;
15681;SDS011;7941;50.966;6.978;2023-03-04T05:56:23;46.77;;;28.63;;
15681;SDS011;7941;50.966;6.978;2023-03-04T05:58:49;45.97;;;29.33;;
15681;SDS011;7941;50.966;6.978;2023-03-04T06:01:16;37.00;;;24.43;;
15681;SDS011;7941;50.966;6.978;2023-03-04T06:03:42;34.97;;;23.37;;
15681;SDS011;7941;50.966;6.978;2023-03-04T06:06:08;36.37;;;20.20;;
15681;SDS011;7941;50.966;6.978;2023-03-04T06:08:34;33.00;;;19.53;;
15681;SDS011;7941;50.966;6.978;2023-03-04T06:11:01;34.10;;;20.83;;
15681;SDS011;7941;50.966;6.978;2023-03-04T06:13:29;36.13;;;18.93;;
15681;SDS011;7941;50.966;6.978;2023-03-04T06:15:55;28.23;;;17.47;;
15681;SDS011;7941;50.966;6.978;2023-03-04T06:18:22;32.17;;;16.93;;
15681;SDS011;7941;50.966;6.978;2023-03-04T06:20:49;30.80;;;16.83;;
15681;SDS011;7941;50.966;6.978;2023-03-04T06:23:15;29.23;;;15.23;;
15681;SDS011;7941;50.966;6.978;2023-03-04T06:25:41;24.53;;;14.17;;
15681;SDS011;7941;50.966;6.978;2023-03-04T06:28:07;24.37;;;13.23;;
15681;SDS011;7941;50.966;6.978;2023-03-04T06:30:33;27.33;;;13.50;;
15681;SDS011;7941;50.966;6.978;2023-03-04T06:33:00;17.43;;;11.50;;
15681;SDS011;7941;50.966;6.978;2023-03-04T06:35:26;19.57;;;10.13;;
15681;SDS011;7941;50.966;6.978;2023-03-04T06:37:52;17.23;;;9.13;;
15681;SDS011;7941;50.966;6.978;2023-03-04T06:40:18;18.87;;;7.90;;
15681;SDS011;7941;50.966;6.978;2023-03-04T06:42:44;16.93;;;7.03;;
15681;SDS011;7941;50.966;6.978;2023-03-04T06:45:11;18.37;;;7.87;;
15681;SDS011;7941;50.966;6.978;2023-03-04T06:47:37;17.40;;;7.80;;
15681;SDS011;7941;50.966;6.978;2023-03-04T06:50:03;14.63;;;8.10;;
15681;SDS011;7941;50.966;6.978;2023-03-04T06:52:30;16.70;;;7.80;;
15681;SDS011;7941;50.966;6.978;2023-03-04T06:54:56;19.80;;;9.67;;
15681;SDS011;7941;50.966;6.978;2023-03-04T06:57:22;25.63;;;14.23;;
15681;SDS011;7941;50.966;6.978;2023-03-04T06:59:49;23.63;;;14.03;;
15681;SDS011;7941;50.966;6.978;2023-03-04T07:02:15;29.50;;;16.70;;
15681;SDS011;7941;50.966;6.978;2023-03-04T07:04:41;25.70;;;17.77;;
15681;SDS011;7941;50.966;6.978;2023-03-04T07:07:07;29.03;;;17.60;;
15681;SDS011;7941;50.966;6.978;2023-03-04T07:09:33;24.20;;;15.57;;
15681;SDS011;7941;50.966;6.978;2023-03-04T07:12:00;20.80;;;14.93;;
15681;SDS011;7941;50.966;6.978;2023-03-04T07:14:26;19.33;;;12.17;;
15681;SDS011;7941;50.966;6.978;2023-03-04T07:16:52;15.80;;;10.27;;
15681;SDS011;7941;50.966;6.978;2023-03-04T07:19:18;17.83;;;10.27;;
15681;SDS011;7941;50.966;6.978;2023-03-04T07:21:44;18.70;;;9.10;;
15681;SDS011;7941;50.966;6.978;2023-03-04T07:24:11;18.77;;;7.90;;
15681;SDS011;7941;50.966;6.978;2023-03-04T07:26:37;16.23;;;7.73;;
15681;SDS011;7941;50.966;6.978;2023-03-04T07:29:04;14.37;;;7.23;;
15681;SDS011;7941;50.966;6.978;2023-03-04T07:31:31;17.53;;;8.43;;
15681;SDS011;7941;50.966;6.978;2023-03-04T07:33:58;21.47;;;12.63;;
15681;SDS011;7941;50.966;6.978;2023-03-04T07:36:25;22.03;;;14.87;;
15681;SDS011;7941;50.966;6.978;2023-03-04T07:38:51;25.57;;;13.30;;
15681;SDS011;7941;50.966;6.978;2023-03-04T07:41:19;16.60;;;10.80;;
15681;SDS011;7941;50.966;6.978;2023-03-04T07:43:45;19.30;;;10.43;;
15681;SDS011;7941;50.966;6.978;2023-03-04T07:46:12;17.43;;;11.27;;
15681;SDS011;7941;50.966;6.978;2023-03-04T07:48:38;18.50;;;11.43;;
15681;SDS011;7941;50.966;6.978;2023-03-04T07:51:05;28.03;;;13.70;;
15681;SDS011;7941;50.966;6.978;2023-03-04T07:53:31;18.53;;;10.33;;
15681;SDS011;7941;50.966;6.978;2023-03-04T07:55:58;22.47;;;11.67;;
15681;SDS011;7941;50.966;6.978;2023-03-04T07:58:24;17.90;;;12.63;;
15681;SDS011;7941;50.966;6.978;2023-03-04T08:00:50;22.10;;;13.80;;
15681;SDS011;7941;50.966;6.978;2023-03-04T08:03:16;19.23;;;11.67;;
15681;SDS011;7941;50.966;6.978;2023-03-04T08:05:43;18.73;;;10.53;;
15681;SDS011;7941;50.966;6.978;2023-03-04T08:08:09;18.17;;;9.57;;
15681;SDS011;7941;50.966;6.978;2023-03-04T08:10:35;18.10;;;9.30;;
15681;SDS011;7941;50.966;6.978;2023-03-04T08:13:03;20.60;;;9.10;;
15681;SDS011;7941;50.966;6.978;2023-03-04T08:15:30;14.87;;;8.40;;
15681;SDS011;7941;50.966;6.978;2023-03-04T08:17:57;12.53;;;7.03;;
15681;SDS011;7941;50.966;6.978;2023-03-04T08:20:23;14.57;;;7.00;;
15681;SDS011;7941;50.966;6.978;2023-03-04T08:22:50;12.97;;;5.53;;
15681;SDS011;7941;50.966;6.978;2023-03-04T08:25:16;16.97;;;5.67;;
15681;SDS011;7941;50.966;6.978;2023-03-04T08:27:42;12.67;;;6.20;;
15681;SDS011;7941;50.966;6.978;2023-03-04T08:30:08;11.80;;;4.73;;
15681;SDS011;7941;50.966;6.978;2023-03-04T08:32:35;11.57;;;4.80;;
15681;SDS011;7941;50.966;6.978;2023-03-04T08:35:01;14.97;;;4.97;;
15681;SDS011;7941;50.966;6.978;2023-03-04T08:37:31;13.30;;;4.40;;
15681;SDS011;7941;50.966;6.978;2023-03-04T08:39:58;10.40;;;3.63;;
15681;SDS011;7941;50.966;6.978;2023-03-04T08:42:24;7.47;;;4.57;;
15681;SDS011;7941;50.966;6.978;2023-03-04T08:44:51;14.90;;;4.17;;
15681;SDS011;7941;50.966;6.978;2023-03-04T08:47:17;11.97;;;4.20;;
15681;SDS011;7941;50.966;6.978;2023-03-04T08:49:43;11.30;;;4.37;;
15681;SDS011;7941;50.966;6.978;2023-03-04T08:52:09;9.77;;;4.03;;
15681;SDS011;7941;50.966;6.978;2023-03-04T08:54:35;13.77;;;4.60;;
15681;SDS011;7941;50.966;6.978;2023-03-04T08:57:02;15.50;;;5.10;;
15681;SDS011;7941;50.966;6.978;2023-03-04T08:59:28;13.27;;;4.97;;
15681;SDS011;7941;50.966;6.978;2023-03-04T09:01:54;9.27;;;3.60;;
15681;SDS011;7941;50.966;6.978;2023-03-04T09:04:20;12.00;;;4.33;;
15681;SDS011;7941;50.966;6.978;2023-03-04T09:06:46;13.77;;;4.47;;
15681;SDS011;7941;50.966;6.978;2023-03-04T09:09:13;14.07;;;3.97;;
15681;SDS011;7941;50.966;6.978;2023-03-04T09:11:39;12.93;;;3.80;;
15681;SDS011;7941;50.966;6.978;2023-03-04T09:14:05;12.60;;;4.10;;
15681;SDS011;7941;50.966;6.978;2023-03-04T09:16:31;11.13;;;4.17;;
15681;SDS011;7941;50.966;6.978;2023-03-04T09:18:58;12.33;;;4.53;;
15681;SDS011;7941;50.966;6.978;2023-03-04T09:21:24;12.53;;;4.70;;
15681;SDS011;7941;50.966;6.978;2023-03-04T09:23:51;10.20;;;3.77;;
15681;SDS011;7941;50.966;6.978;2023-03-04T09:28:54;12.23;;;4.17;;
15681;SDS011;7941;50.966;6.978;2023-03-04T09:31:21;7.13;;;4.70;;
15681;SDS011;7941;50.966;6.978;2023-03-04T09:33:48;9.87;;;5.83;;
15681;SDS011;7941;50.966;6.978;2023-03-04T09:36:14;11.80;;;4.83;;
15681;SDS011;7941;50.966;6.978;2023-03-04T09:38:41;14.00;;;5.20;;
15681;SDS011;7941;50.966;6.978;2023-03-04T09:41:14;9.80;;;6.07;;
15681;SDS011;7941;50.966;6.978;2023-03-04T09:43:41;8.10;;;4.50;;
15681;SDS011;7941;50.966;6.978;2023-03-04T09:46:10;7.40;;;3.93;;
15681;SDS011;7941;50.966;6.978;2023-03-04T09:48:50;5.17;;;3.30;;
15681;SDS011;7941;50.966;6.978;2023-03-04T09:56:19;8.83;;;4.80;;
15681;SDS011;7941;50.966;6.978;2023-03-04T09:58:57;8.97;;;5.07;;
15681;SDS011;7941;50.966;6.978;2023-03-04T10:01:25;10.97;;;5.10;;
15681;SDS011;7941;50.966;6.978;2023-03-04T10:04:10;10.90;;;4.63;;
15681;SDS011;7941;50.966;6.978;2023-03-04T10:06:38;11.70;;;4.50;;
15681;SDS011;7941;50.966;6.978;2023-03-04T10:09:09;9.80;;;3.87;;
15681;SDS011;7941;50.966;6.978;2023-03-04T10:16:31;6.23;;;5.27;;
15681;SDS011;7941;50.966;6.978;2023-03-04T10:19:03;10.50;;;5.50;;
15681;SDS011;7941;50.966;6.978;2023-03-04T10:21:35;10.33;;;4.73;;
15681;SDS011;7941;50.966;6.978;2023-03-04T10:24:07;7.07;;;4.13;;
15681;SDS011;7941;50.966;6.978;2023-03-04T10:26:36;8.43;;;4.00;;
15681;SDS011;7941;50.966;6.978;2023-03-04T10:29:02;5.70;;;4.20;;
15681;SDS011;7941;50.966;6.978;2023-03-04T10:31:32;10.87;;;3.47;;
15681;SDS011;7941;50.966;6.978;2023-03-04T10:34:01;7.80;;;3.63;;
15681;SDS011;7941;50.966;6.978;2023-03-04T10:41:25;6.33;;;3.40;;
15681;SDS011;7941;50.966;6.978;2023-03-04T10:44:34;5.03;;;2.70;;
15681;SDS011;7941;50.966;6.978;2023-03-04T10:46:42;8.00;;;3.30;;
15681;SDS011;7941;50.966;6.978;2023-03-04T10:49:09;6.67;;;3.47;;
15681;SDS011;7941;50.966;6.978;2023-03-04T10:51:43;4.57;;;2.93;;
15681;SDS011;7941;50.966;6.978;2023-03-04T10:54:16;6.07;;;2.47;;
15681;SDS011;7941;50.966;6.978;2023-03-04T10:59:31;5.20;;;2.67;;
15681;SDS011;7941;50.966;6.978;2023-03-04T11:01:58;7.97;;;2.57;;
15681;SDS011;7941;50.966;6.978;2023-03-04T11:04:26;7.00;;;2.53;;
15681;SDS011;7941;50.966;6.978;2023-03-04T11:06:52;6.10;;;3.23;;
15681;SDS011;7941;50.966;6.978;2023-03-04T11:09:29;4.23;;;3.07;;
15681;SDS011;7941;50.966;6.978;2023-03-04T11:12:00;6.90;;;3.80;;
15681;SDS011;7941;50.966;6.978;2023-03-04T11:14:27;8.67;;;3.13;;
15681;SDS011;7941;50.966;6.978;2023-03-04T11:17:00;9.00;;;2.77;;
15681;SDS011;7941;50.966;6.978;2023-03-04T11:19:30;5.13;;;2.70;;
15681;SDS011;7941;50.966;6.978;2023-03-04T11:22:00;5.50;;;2.70;;
15681;SDS011;7941;50.966;6.978;2023-03-04T11:24:27;5.70;;;2.40;;
15681;SDS011;7941;50.966;6.978;2023-03-04T11:27:09;4.07;;;2.80;;
15681;SDS011;7941;50.966;6.978;2023-03-04T11:29:42;7.87;;;3.00;;
15681;SDS011;7941;50.966;6.978;2023-03-04T11:32:13;7.10;;;3.23;;
15681;SDS011;7941;50.966;6.978;2023-03-04T11:34:45;7.80;;;3.40;;
15681;SDS011;7941;50.966;6.978;2023-03-04T11:39:45;7.07;;;3.10;;
15681;SDS011;7941;50.966;6.978;2023-03-04T11:44:57;8.13;;;2.77;;
15681;SDS011;7941;50.966;6.978;2023-03-04T11:47:34;6.07;;;3.37;;
15681;SDS011;7941;50.966;6.978;2023-03-04T12:02:46;9.20;;;3.23;;
15681;SDS011;7941;50.966;6.978;2023-03-04T12:05:36;10.03;;;3.20;;
15681;SDS011;7941;50.966;6.978;2023-03-04T12:10:58;3.97;;;2.40;;
15681;SDS011;7941;50.966;6.978;2023-03-04T12:18:31;4.47;;;2.17;;
15681;SDS011;7941;50.966;6.978;2023-03-04T12:43:55;5.77;;;2.57;;
15681;SDS011;7941;50.966;6.978;2023-03-04T12:49:16;5.00;;;2.63;;
15681;SDS011;7941;50.966;6.978;2023-03-04T12:54:39;3.50;;;2.30;;
15681;SDS011;7941;50.966;6.978;2023-03-04T12:57:13;5.17;;;2.33;;
15681;SDS011;7941;50.966;6.978;2023-03-04T13:02:32;2.87;;;1.90;;
15681;SDS011;7941;50.966;6.978;2023-03-04T13:10:34;2.57;;;1.70;;
15681;SDS011;7941;50.966;6.978;2023-03-04T13:13:00;2.63;;;2.03;;
15681;SDS011;7941;50.966;6.978;2023-03-04T13:17:57;2.77;;;2.17;;
15681;SDS011;7941;50.966;6.978;2023-03-04T13:46:41;2.97;;;1.87;;
15681;SDS011;7941;50.966;6.978;2023-03-04T13:49:02;3.30;;;1.60;;
15681;SDS011;7941;50.966;6.978;2023-03-04T14:04:00;2.23;;;1.30;;
15681;SDS011;7941;50.966;6.978;2023-03-04T14:06:28;1.97;;;1.60;;
15681;SDS011;7941;50.966;6.978;2023-03-04T14:08:55;2.93;;;1.63;;
15681;SDS011;7941;50.966;6.978;2023-03-04T14:11:27;3.30;;;1.90;;
15681;SDS011;7941;50.966;6.978;2023-03-04T14:13:56;5.00;;;1.90;;
15681;SDS011;7941;50.966;6.978;2023-03-04T14:16:25;2.33;;;2.10;;
15681;SDS011;7941;50.966;6.978;2023-03-04T14:19:03;3.40;;;1.83;;
15681;SDS011;7941;50.966;6.978;2023-03-04T14:21:30;3.43;;;2.03;;
15681;SDS011;7941;50.966;6.978;2023-03-04T14:24:04;4.47;;;2.43;;
15681;SDS011;7941;50.966;6.978;2023-03-04T14:26:31;3.43;;;2.30;;
15681;SDS011;7941;50.966;6.978;2023-03-04T14:28:58;3.33;;;2.03;;
15681;SDS011;7941;50.966;6.978;2023-03-04T14:31:27;4.37;;;2.30;;
15681;SDS011;7941;50.966;6.978;2023-03-04T14:33:55;3.30;;;2.20;;
15681;SDS011;7941;50.966;6.978;2023-03-04T14:36:26;2.60;;;2.40;;
15681;SDS011;7941;50.966;6.978;2023-03-04T14:38:54;4.03;;;2.50;;
15681;SDS011;7941;50.966;6.978;2023-03-04T14:43:57;4.43;;;2.23;;
15681;SDS011;7941;50.966;6.978;2023-03-04T14:46:25;4.23;;;2.20;;
15681;SDS011;7941;50.966;6.978;2023-03-04T14:48:55;3.53;;;2.57;;
15681;SDS011;7941;50.966;6.978;2023-03-04T14:54:03;2.63;;;2.27;;
15681;SDS011;7941;50.966;6.978;2023-03-04T14:56:30;3.13;;;2.23;;
15681;SDS011;7941;50.966;6.978;2023-03-04T14:58:58;2.97;;;2.67;;
15681;SDS011;7941;50.966;6.978;2023-03-04T15:06:24;6.43;;;3.23;;
15681;SDS011;7941;50.966;6.978;2023-03-04T15:08:57;4.47;;;3.13;;
15681;SDS011;7941;50.966;6.978;2023-03-04T15:11:26;3.63;;;2.60;;
15681;SDS011;7941;50.966;6.978;2023-03-04T15:13:54;2.93;;;2.47;;
15681;SDS011;7941;50.966;6.978;2023-03-04T15:16:22;4.33;;;2.10;;
15681;SDS011;7941;50.966;6.978;2023-03-04T15:19:02;3.70;;;2.60;;
15681;SDS011;7941;50.966;6.978;2023-03-04T15:21:39;4.23;;;2.70;;
15681;SDS011;7941;50.966;6.978;2023-03-04T15:24:08;4.70;;;2.37;;
15681;SDS011;7941;50.966;6.978;2023-03-04T15:26:39;4.50;;;2.40;;
15681;SDS011;7941;50.966;6.978;2023-03-04T15:29:13;3.67;;;2.77;;
15681;SDS011;7941;50.966;6.978;2023-03-04T15:31:39;3.83;;;2.70;;
15681;SDS011;7941;50.966;6.978;2023-03-04T15:34:12;4.93;;;2.20;;
15681;SDS011;7941;50.966;6.978;2023-03-04T15:36:39;5.13;;;2.60;;
15681;SDS011;7941;50.966;6.978;2023-03-04T15:39:05;4.63;;;2.90;;
15681;SDS011;7941;50.966;6.978;2023-03-04T15:41:35;5.33;;;3.40;;
15681;SDS011;7941;50.966;6.978;2023-03-04T15:44:01;4.17;;;3.00;;
15681;SDS011;7941;50.966;6.978;2023-03-04T15:46:28;3.50;;;3.20;;
15681;SDS011;7941;50.966;6.978;2023-03-04T15:48:54;6.23;;;3.87;;
15681;SDS011;7941;50.966;6.978;2023-03-04T15:51:21;8.17;;;4.10;;
15681;SDS011;7941;50.966;6.978;2023-03-04T15:53:51;10.27;;;3.90;;
15681;SDS011;7941;50.966;6.978;2023-03-04T15:56:28;4.87;;;3.90;;
15681;SDS011;7941;50.966;6.978;2023-03-04T15:59:00;5.87;;;3.97;;
15681;SDS011;7941;50.966;6.978;2023-03-04T16:01:27;5.60;;;3.80;;
15681;SDS011;7941;50.966;6.978;2023-03-04T16:03:53;5.77;;;3.50;;
15681;SDS011;7941;50.966;6.978;2023-03-04T16:06:20;8.07;;;4.07;;
15681;SDS011;7941;50.966;6.978;2023-03-04T16:08:47;9.17;;;4.20;;
15681;SDS011;7941;50.966;6.978;2023-03-04T16:11:21;5.60;;;3.57;;
15681;SDS011;7941;50.966;6.978;2023-03-04T16:13:48;4.87;;;3.40;;
15681;SDS011;7941;50.966;6.978;2023-03-04T16:16:14;4.80;;;4.17;;
15681;SDS011;7941;50.966;6.978;2023-03-04T16:18:41;4.67;;;3.73;;
15681;SDS011;7941;50.966;6.978;2023-03-04T16:21:12;5.50;;;4.00;;
15681;SDS011;7941;50.966;6.978;2023-03-04T16:23:40;6.60;;;3.97;;
15681;SDS011;7941;50.966;6.978;2023-03-04T16:26:10;4.50;;;3.90;;
15681;SDS011;7941;50.966;6.978;2023-03-04T16:28:37;5.80;;;3.97;;
15681;SDS011;7941;50.966;6.978;2023-03-04T16:31:03;7.40;;;4.33;;
15681;SDS011;7941;50.966;6.978;2023-03-04T16:33:29;6.73;;;4.67;;
15681;SDS011;7941;50.966;6.978;2023-03-04T16:35:56;7.03;;;5.03;;
15681;SDS011;7941;50.966;6.978;2023-03-04T16:38:23;7.23;;;4.57;;
15681;SDS011;7941;50.966;6.978;2023-03-04T16:40:52;9.47;;;5.03;;
15681;SDS011;7941;50.966;6.978;2023-03-04T16:43:18;7.10;;;5.17;;
15681;SDS011;7941;50.966;6.978;2023-03-04T16:45:44;11.27;;;5.47;;
15681;SDS011;7941;50.966;6.978;2023-03-04T16:48:10;7.67;;;5.97;;
15681;SDS011;7941;50.966;6.978;2023-03-04T16:50:37;8.60;;;6.73;;
15681;SDS011;7941;50.966;6.978;2023-03-04T16:53:03;7.70;;;6.17;;
15681;SDS011;7941;50.966;6.978;2023-03-04T16:55:30;8.33;;;7.30;;
15681;SDS011;7941;50.966;6.978;2023-03-04T16:57:56;9.07;;;7.10;;
15681;SDS011;7941;50.966;6.978;2023-03-04T17:00:23;9.33;;;7.20;;
15681;SDS011;7941;50.966;6.978;2023-03-04T17:02:54;9.30;;;7.73;;
15681;SDS011;7941;50.966;6.978;2023-03-04T17:05:21;9.57;;;7.73;;